Kezdőlap
METAR-TAF:

METAR-TAF

Repülőterek :

Kirkenes, Norvégia

földrajzi szélesség: 69-44N, földrajzi hosszúság: 029-54E, magasság: 9 m

Jelenlegi meteorológiai megfigyelések

A jelentés 41 perccel ezelõtt készült, 22:20 UTC
Északkeleti szél 4 kt
Hőmérséklet 2°C
Páratartalom 87%
Légköri nyomás 1001 hPa
Látótávolság 10 km, vagy több
enyhe szitálás

METAR: ENKR 242220Z AUTO 05004KT 9999 -DZ BKN013/// BKN029/// OVC055/// 02/00 Q1001 RERA RMK WIND 731FT 06014KT

Idő: 01:01 (23:01 UTC)

Előrejelzés

A jelentés 3 órával és 1 perccel ezelõtt készült, 20:00 UTC
Az előrejelzés 24-én 21 óra UTC és 25-én 06 óra UTC között érvényes
Keleti szél 5 kt
Látótávolság 10 km, vagy több
Kevés felhő 800 lábon
Szakadozott felhőzet 3500 lábon

TAF: ENKR 242000Z 2421/2506 08005KT 9999 FEW008 BKN035

Meteorológiai megfigyelések és előrejelzések több, mint 4000 repülőtéren (METAR és TAF jelentéseket).

A térképen piros és sárga pontok jelzik az elérhető meteorológiai állomásokat.

Mozgassa az egeret a pont fölött, hogy megjelenjen az állomás neve.

Azután kattintson az időjárási megfigyelések és előrejelzések megtekintéséhez.

A térkép megváltoztatása: kattintson a fekete keresztel jelölt zöld gombra ráközelítéshez, a vonallal jelölt zöld gombra távolításhoz, vagy a zöld nyilakra a szomszédos térképek eléréséhez.


METAR-TAF: